createdAt,value
2022-11-12T00:02:14.275Z,6.90
2022-11-12T00:05:01.175Z,7.27
2022-11-12T00:07:48.017Z,6.90
2022-11-12T00:10:35.058Z,7.30
2022-11-12T00:13:21.846Z,6.53
2022-11-12T00:16:08.638Z,6.90
2022-11-12T00:18:55.523Z,7.33
2022-11-12T00:21:42.445Z,7.33
2022-11-12T00:24:29.247Z,6.87
2022-11-12T00:27:16.102Z,7.17
2022-11-12T00:30:03.020Z,6.67
2022-11-12T00:32:50.037Z,7.13
2022-11-12T00:35:36.999Z,6.60
2022-11-12T00:38:24.244Z,6.47
2022-11-12T00:41:11.223Z,6.63
2022-11-12T00:43:58.112Z,7.10
2022-11-12T00:46:45.053Z,6.30
2022-11-12T00:49:31.912Z,5.83
2022-11-12T00:52:18.757Z,6.23
2022-11-12T00:55:05.634Z,5.70
2022-11-12T00:57:52.518Z,5.57
2022-11-12T01:00:39.430Z,5.90
2022-11-12T01:03:27.853Z,6.00
2022-11-12T01:06:15.944Z,5.43
2022-11-12T01:09:02.791Z,6.13
2022-11-12T01:11:49.936Z,6.53
2022-11-12T01:14:36.876Z,6.33
2022-11-12T01:17:23.730Z,5.63
2022-11-12T01:20:10.670Z,6.57
2022-11-12T01:22:57.455Z,6.17
2022-11-12T01:25:44.243Z,6.57
2022-11-12T01:28:31.032Z,6.57
2022-11-12T01:31:17.918Z,6.33
2022-11-12T01:34:06.363Z,6.70
2022-11-12T01:36:53.275Z,6.73
2022-11-12T01:39:40.069Z,6.70
2022-11-12T01:42:30.175Z,6.40
2022-11-12T01:45:17.004Z,6.43
2022-11-12T01:48:04.591Z,6.63
2022-11-12T01:50:52.064Z,5.83
2022-11-12T01:53:41.440Z,5.90
2022-11-12T01:56:29.894Z,6.10
2022-11-12T01:59:19.201Z,6.03
2022-11-12T02:02:06.043Z,6.30
2022-11-12T02:04:54.569Z,5.90
2022-11-12T02:07:42.288Z,5.67
2022-11-12T02:10:29.523Z,6.40
2022-11-12T02:13:35.459Z,6.53
2022-11-12T02:16:22.379Z,5.20
2022-11-12T02:19:11.069Z,5.70
2022-11-12T02:21:57.912Z,6.17
2022-11-12T02:24:44.698Z,6.50
2022-11-12T02:27:31.517Z,6.57
2022-11-12T02:30:19.496Z,6.20
2022-11-12T02:33:06.369Z,6.17
2022-11-12T02:35:53.227Z,6.23
2022-11-12T02:38:40.089Z,6.33
2022-11-12T02:41:27.206Z,6.33
2022-11-12T02:44:14.086Z,6.47
2022-11-12T02:47:00.862Z,5.90
2022-11-12T02:49:47.707Z,5.47
2022-11-12T02:52:35.011Z,5.57
2022-11-12T02:55:21.858Z,6.60
2022-11-12T02:58:08.730Z,6.87
2022-11-12T03:00:56.126Z,6.53
2022-11-12T03:03:42.957Z,6.20
2022-11-12T03:06:29.820Z,7.17
2022-11-12T03:09:16.697Z,6.97
2022-11-12T03:12:03.636Z,6.83
2022-11-12T03:14:50.435Z,6.80
2022-11-12T03:17:37.243Z,6.30
2022-11-12T03:20:24.146Z,6.80
2022-11-12T03:23:11.607Z,7.43
2022-11-12T03:25:58.729Z,6.93
2022-11-12T03:28:45.477Z,7.40
2022-11-12T03:31:32.304Z,8.37
2022-11-12T03:34:19.074Z,7.83
2022-11-12T03:37:09.611Z,8.50
2022-11-12T03:39:56.480Z,7.17
2022-11-12T03:42:47.783Z,7.80
2022-11-12T03:45:34.633Z,7.73
2022-11-12T03:48:22.134Z,7.87
2022-11-12T03:51:08.994Z,7.27
2022-11-12T03:53:55.853Z,7.37
2022-11-12T03:56:42.585Z,8.17
2022-11-12T03:59:29.510Z,7.57
2022-11-12T04:02:16.406Z,7.80
2022-11-12T04:05:22.469Z,7.70
2022-11-12T04:08:35.508Z,7.40
2022-11-12T04:11:22.349Z,7.67
2022-11-12T04:14:09.199Z,7.20
2022-11-12T04:17:14.551Z,7.07
2022-11-12T04:20:23.420Z,7.73
2022-11-12T04:23:10.349Z,7.33
2022-11-12T04:26:16.113Z,7.83
2022-11-12T04:29:21.714Z,6.77
2022-11-12T04:32:08.671Z,7.07
2022-11-12T04:34:55.842Z,7.80
2022-11-12T04:37:45.786Z,6.73
2022-11-12T04:40:50.946Z,6.90
2022-11-12T04:43:56.278Z,6.80
2022-11-12T04:46:43.099Z,6.53
2022-11-12T04:49:29.982Z,6.57
2022-11-12T04:52:17.140Z,6.67
2022-11-12T04:55:04.223Z,6.43
2022-11-12T04:57:52.764Z,6.17
2022-11-12T05:00:43.023Z,6.33
2022-11-12T05:03:35.975Z,5.90
2022-11-12T05:06:41.528Z,6.30
2022-11-12T05:09:28.946Z,5.50
2022-11-12T05:12:15.758Z,5.77
2022-11-12T05:15:02.839Z,5.43
2022-11-12T05:17:49.690Z,6.10
2022-11-12T05:20:36.639Z,5.77
2022-11-12T05:23:23.506Z,6.00
2022-11-12T05:26:10.364Z,6.37
2022-11-12T05:28:57.114Z,5.97
2022-11-12T05:31:43.983Z,6.00
2022-11-12T05:34:31.045Z,6.47
2022-11-12T05:37:18.058Z,6.20
2022-11-12T05:40:05.178Z,6.83
2022-11-12T05:42:52.152Z,6.90
2022-11-12T05:45:42.231Z,6.77
2022-11-12T05:48:29.541Z,6.70
2022-11-12T05:51:16.756Z,6.10
2022-11-12T05:54:03.702Z,6.47
2022-11-12T05:56:51.561Z,6.03
2022-11-12T05:59:38.402Z,6.20
2022-11-12T06:02:25.282Z,6.67
2022-11-12T06:05:12.102Z,6.20
2022-11-12T06:07:58.970Z,6.30
2022-11-12T06:10:49.456Z,6.73
2022-11-12T06:13:36.350Z,6.20
2022-11-12T06:16:23.311Z,6.63
2022-11-12T06:19:10.163Z,6.63
2022-11-12T06:21:57.016Z,7.13
2022-11-12T06:24:43.891Z,6.73
2022-11-12T06:27:30.742Z,7.23
2022-11-12T06:30:21.655Z,6.37
2022-11-12T06:33:11.334Z,6.73
2022-11-12T06:36:03.075Z,6.27
2022-11-12T06:38:50.236Z,6.50
2022-11-12T06:41:37.110Z,7.03
2022-11-12T06:44:23.916Z,6.73
2022-11-12T06:47:10.870Z,7.10
2022-11-12T06:49:57.678Z,7.57
2022-11-12T06:52:44.556Z,6.50
2022-11-12T06:55:31.370Z,8.03
2022-11-12T06:58:18.162Z,7.80
2022-11-12T07:01:11.153Z,7.07
2022-11-12T07:03:58.663Z,7.63
2022-11-12T07:06:45.608Z,7.00
2022-11-12T07:09:32.537Z,6.83
2022-11-12T07:12:19.386Z,7.27
2022-11-12T07:15:06.460Z,7.03
2022-11-12T07:17:53.694Z,7.33
2022-11-12T07:20:40.538Z,6.90
2022-11-12T07:23:27.930Z,7.10
2022-11-12T07:26:14.946Z,7.93
2022-11-12T07:29:01.850Z,7.47
2022-11-12T07:31:48.691Z,7.50
2022-11-12T07:34:35.479Z,7.33
2022-11-12T07:37:22.271Z,7.83
2022-11-12T07:40:09.213Z,8.70
2022-11-12T07:42:56.103Z,7.87
2022-11-12T07:45:43.770Z,8.17
2022-11-12T07:48:30.907Z,8.10
2022-11-12T07:51:21.766Z,9.83
2022-11-12T07:54:08.614Z,8.20
2022-11-12T07:56:55.412Z,9.40
2022-11-12T07:59:46.103Z,9.83
2022-11-12T08:02:33.452Z,10.27
2022-11-12T08:05:23.441Z,9.03
2022-11-12T08:08:19.186Z,9.50
2022-11-12T08:11:08.749Z,8.77
2022-11-12T08:13:56.341Z,9.00
2022-11-12T08:16:43.132Z,8.50
2022-11-12T08:19:29.980Z,9.13
2022-11-12T08:22:16.779Z,9.47
2022-11-12T08:25:03.673Z,8.57
2022-11-12T08:27:50.737Z,8.77
2022-11-12T08:30:37.519Z,8.30
2022-11-12T08:33:24.690Z,9.27
2022-11-12T08:36:13.032Z,8.83
2022-11-12T08:38:59.943Z,8.70
2022-11-12T08:41:46.825Z,8.60
2022-11-12T08:44:34.025Z,9.03
2022-11-12T08:47:20.829Z,9.10
2022-11-12T08:50:07.823Z,9.40
2022-11-12T08:52:59.059Z,8.53
2022-11-12T08:55:45.836Z,9.33
2022-11-12T08:58:32.714Z,9.87
2022-11-12T09:01:19.581Z,9.80
2022-11-12T09:04:06.436Z,9.33
2022-11-12T09:06:54.189Z,9.07
2022-11-12T09:09:41.194Z,10.83
2022-11-12T09:12:28.383Z,9.30
2022-11-12T09:18:21.971Z,8.67
2022-11-12T09:21:10.785Z,8.90
2022-11-12T09:23:57.643Z,8.93
2022-11-12T09:26:44.502Z,9.57
2022-11-12T09:29:31.332Z,8.93
2022-11-12T09:32:18.243Z,8.03
2022-11-12T09:35:05.258Z,8.30
2022-11-12T09:37:52.118Z,9.40
2022-11-12T09:40:44.339Z,9.70
2022-11-12T09:43:36.991Z,8.67
2022-11-12T09:46:28.048Z,9.50
2022-11-12T09:49:19.707Z,8.47
2022-11-12T09:52:06.512Z,9.00
2022-11-12T09:55:08.905Z,8.77
2022-11-12T09:57:56.331Z,8.17
2022-11-12T10:00:47.471Z,8.70
2022-11-12T10:03:47.023Z,8.13
2022-11-12T10:06:52.595Z,8.33
2022-11-12T10:09:58.416Z,7.80
2022-11-12T10:12:56.000Z,7.80
2022-11-12T10:16:04.259Z,7.73
2022-11-12T10:19:00.393Z,7.40
2022-11-12T10:22:05.911Z,8.33
2022-11-12T10:24:53.123Z,8.83
2022-11-12T10:27:40.753Z,8.57
2022-11-12T10:30:27.633Z,9.17
2022-11-12T10:33:15.157Z,8.40
2022-11-12T10:36:18.731Z,8.90
2022-11-12T10:39:05.641Z,8.63
2022-11-12T10:42:02.331Z,9.30
2022-11-12T10:44:49.646Z,8.23
2022-11-12T10:47:43.027Z,8.07
2022-11-12T10:50:35.180Z,7.53
2022-11-12T10:53:35.335Z,7.13
2022-11-12T10:56:29.982Z,7.10
2022-11-12T10:59:16.889Z,7.60
2022-11-12T11:02:03.816Z,6.90
2022-11-12T11:04:50.680Z,7.67
2022-11-12T11:07:37.591Z,7.47
2022-11-12T11:10:29.363Z,7.53
2022-11-12T11:13:23.874Z,7.53
2022-11-12T11:16:12.958Z,7.77
2022-11-12T11:19:02.473Z,7.07
2022-11-12T11:21:49.386Z,7.63
2022-11-12T11:24:39.228Z,7.97
2022-11-12T11:27:35.671Z,8.27
2022-11-12T11:30:23.355Z,7.70
2022-11-12T11:33:20.817Z,8.30
2022-11-12T11:36:10.845Z,7.67
2022-11-12T11:39:20.753Z,7.63
2022-11-12T11:42:13.713Z,7.20
2022-11-12T11:45:03.509Z,6.97
2022-11-12T11:48:22.527Z,7.60
2022-11-12T11:51:12.155Z,6.97
2022-11-12T11:53:59.139Z,7.97
2022-11-12T11:56:46.495Z,8.07
2022-11-12T11:59:33.326Z,7.30
2022-11-12T12:02:29.918Z,7.00
2022-11-12T12:05:35.707Z,8.30
2022-11-12T12:08:36.794Z,8.17
2022-11-12T12:11:32.670Z,7.33
2022-11-12T12:14:25.721Z,8.07
2022-11-12T12:17:31.765Z,7.57
2022-11-12T12:20:26.507Z,8.23
2022-11-12T12:23:28.184Z,7.97
2022-11-12T12:26:17.580Z,7.20
2022-11-12T12:29:16.689Z,7.47
2022-11-12T12:32:25.923Z,7.20
2022-11-12T12:35:22.193Z,6.80
2022-11-12T12:38:14.646Z,7.10
2022-11-12T12:41:11.724Z,6.63
2022-11-12T12:44:04.622Z,7.67
2022-11-12T12:47:00.387Z,6.73
2022-11-12T12:49:49.306Z,6.87
2022-11-12T12:52:54.895Z,7.40
2022-11-12T12:55:43.194Z,6.90
2022-11-12T12:58:56.318Z,6.77
2022-11-12T13:01:43.265Z,6.80
2022-11-12T13:04:48.886Z,6.70
2022-11-12T13:07:40.762Z,6.20
2022-11-12T13:10:34.906Z,7.00
2022-11-12T13:13:21.771Z,6.73
2022-11-12T13:16:08.823Z,6.90
2022-11-12T13:18:55.716Z,6.93
2022-11-12T13:21:44.319Z,7.53
2022-11-12T13:24:57.609Z,6.67
2022-11-12T13:27:44.508Z,6.50
2022-11-12T13:30:31.418Z,6.50
2022-11-12T13:33:23.840Z,6.97
2022-11-12T13:36:23.749Z,7.90
2022-11-12T13:39:12.855Z,7.27
2022-11-12T13:42:18.456Z,7.23
2022-11-12T13:45:05.932Z,7.50
2022-11-12T13:47:53.517Z,6.77
2022-11-12T13:50:41.320Z,7.17
2022-11-12T13:53:30.837Z,7.57
2022-11-12T13:56:29.203Z,7.90
2022-11-12T13:59:20.588Z,7.80
2022-11-12T14:02:22.375Z,8.33
2022-11-12T14:05:16.930Z,7.40
2022-11-12T14:08:22.727Z,7.13
2022-11-12T14:11:35.750Z,7.33
2022-11-12T14:14:41.351Z,9.23
2022-11-12T14:17:36.542Z,9.40
2022-11-12T14:20:25.939Z,8.77
2022-11-12T14:23:23.164Z,9.10
2022-11-12T14:26:13.106Z,8.97
2022-11-12T14:29:00.018Z,8.40
2022-11-12T14:31:47.131Z,8.37
2022-11-12T14:34:34.390Z,9.67
2022-11-12T14:37:39.858Z,7.27
2022-11-12T14:40:32.092Z,8.27
2022-11-12T14:43:24.835Z,8.57
2022-11-12T14:46:28.993Z,8.47
2022-11-12T14:49:40.729Z,8.20
2022-11-12T14:52:40.799Z,8.33
2022-11-12T14:55:32.001Z,8.60
2022-11-12T14:58:19.649Z,9.20
2022-11-12T15:01:55.694Z,9.00
2022-11-12T15:04:35.904Z,8.87
2022-11-12T15:07:23.763Z,8.30
2022-11-12T15:10:29.754Z,9.47
2022-11-12T15:13:19.078Z,9.73
2022-11-12T15:16:07.556Z,8.67
2022-11-12T15:19:00.627Z,9.67
2022-11-12T15:21:48.803Z,9.07
2022-11-12T15:24:36.654Z,9.87
2022-11-12T15:27:38.538Z,9.23
2022-11-12T15:30:26.917Z,9.00
2022-11-12T15:33:16.337Z,9.87
2022-11-12T15:36:03.267Z,10.07
2022-11-12T15:38:51.483Z,10.67
2022-11-12T15:41:39.000Z,9.53
2022-11-12T15:44:26.028Z,10.20
2022-11-12T15:47:20.995Z,11.03
2022-11-12T15:50:14.267Z,9.97
2022-11-12T15:53:01.124Z,10.13
2022-11-12T15:55:47.916Z,10.13
2022-11-12T15:58:36.002Z,10.23
2022-11-12T16:01:22.807Z,10.30
2022-11-12T16:04:11.412Z,12.00
2022-11-12T16:06:59.809Z,12.10
2022-11-12T16:09:46.708Z,11.73
2022-11-12T16:12:34.096Z,12.83
2022-11-12T16:15:25.483Z,12.13
2022-11-12T16:18:12.403Z,12.50
2022-11-12T16:20:59.215Z,12.60
2022-11-12T16:23:45.981Z,14.60
2022-11-12T16:26:32.907Z,13.87
2022-11-12T16:29:19.817Z,12.93
2022-11-12T16:32:06.658Z,12.17
2022-11-12T16:34:57.049Z,12.93
2022-11-12T16:37:47.412Z,12.90
2022-11-12T16:40:34.241Z,12.97
2022-11-12T16:43:24.681Z,13.53
2022-11-12T16:46:31.255Z,13.13
2022-11-12T16:49:18.033Z,12.80
2022-11-12T16:52:04.811Z,13.60
2022-11-12T16:54:51.607Z,12.03
2022-11-12T16:57:38.453Z,13.50
2022-11-12T17:00:25.499Z,14.37
2022-11-12T17:03:13.348Z,15.53
2022-11-12T17:06:00.184Z,16.33
2022-11-12T17:08:48.163Z,18.63
2022-11-12T17:11:35.303Z,17.63
2022-11-12T17:14:25.604Z,17.53
2022-11-12T17:17:14.848Z,20.80
2022-11-12T17:20:01.812Z,18.50
2022-11-12T17:22:48.796Z,19.70
2022-11-12T17:25:35.708Z,19.93
2022-11-12T17:28:22.537Z,20.17
2022-11-12T17:31:15.323Z,20.87
2022-11-12T17:34:04.106Z,18.30
2022-11-12T17:36:50.909Z,18.03
2022-11-12T17:39:37.706Z,17.03
2022-11-12T17:42:24.524Z,15.87
2022-11-12T17:45:11.355Z,16.87
2022-11-12T17:47:58.215Z,19.17
2022-11-12T17:50:45.533Z,18.70
2022-11-12T17:53:32.424Z,17.67
2022-11-12T17:56:20.438Z,19.70
2022-11-12T17:59:07.302Z,22.10
2022-11-12T18:01:54.183Z,20.87
2022-11-12T18:04:41.152Z,21.33
2022-11-12T18:07:28.021Z,23.60
2022-11-12T18:10:19.350Z,23.10
2022-11-12T18:13:06.593Z,25.40
2022-11-12T18:15:53.535Z,24.23
2022-11-12T18:18:40.413Z,23.73
2022-11-12T18:21:27.706Z,23.90
2022-11-12T18:24:15.642Z,24.60
2022-11-12T18:27:02.539Z,25.40
2022-11-12T18:29:49.490Z,24.17
2022-11-12T18:32:36.572Z,25.30
2022-11-12T18:35:28.580Z,22.90
2022-11-12T18:38:16.665Z,24.10
2022-11-12T18:41:05.099Z,22.97
2022-11-12T18:43:52.517Z,25.37
2022-11-12T18:46:39.396Z,23.23
2022-11-12T18:49:26.229Z,23.87
2022-11-12T18:52:13.023Z,23.77
2022-11-12T18:54:59.916Z,23.57
2022-11-12T18:57:46.779Z,22.63
2022-11-12T19:00:33.713Z,20.83
2022-11-12T19:03:20.530Z,21.23
2022-11-12T19:06:07.575Z,22.83
2022-11-12T19:09:00.687Z,23.37
2022-11-12T19:11:47.613Z,25.20
2022-11-12T19:14:34.416Z,25.23
2022-11-12T19:17:21.639Z,24.30
2022-11-12T19:20:08.896Z,24.30
2022-11-12T19:22:56.441Z,23.17
2022-11-12T19:25:43.247Z,22.33
2022-11-12T19:28:30.866Z,23.77
2022-11-12T19:31:19.709Z,22.17
2022-11-12T19:34:07.321Z,21.70
2022-11-12T19:37:11.900Z,24.43
2022-11-12T19:40:01.307Z,24.33
2022-11-12T19:42:48.232Z,23.63
2022-11-12T19:45:35.099Z,23.73
2022-11-12T19:48:21.861Z,22.47
2022-11-12T19:51:09.447Z,20.80
2022-11-12T19:53:56.321Z,24.23
2022-11-12T19:56:43.129Z,21.73
2022-11-12T19:59:29.946Z,21.20
2022-11-12T20:02:16.808Z,20.77
2022-11-12T20:05:04.563Z,21.17
2022-11-12T20:07:52.057Z,20.87
2022-11-12T20:10:38.898Z,20.20
2022-11-12T20:13:26.708Z,18.73
2022-11-12T20:16:15.106Z,20.53
2022-11-12T20:19:02.659Z,19.13
2022-11-12T20:21:49.515Z,21.23
2022-11-12T20:24:36.577Z,19.37
2022-11-12T20:27:23.435Z,19.60
2022-11-12T20:30:10.499Z,20.97
2022-11-12T20:32:57.311Z,20.70
2022-11-12T20:35:44.356Z,19.47
2022-11-12T20:38:31.245Z,20.90
2022-11-12T20:41:20.099Z,20.20
2022-11-12T20:44:06.992Z,20.50
2022-11-12T20:46:53.796Z,20.27
2022-11-12T20:49:40.635Z,20.53
2022-11-12T20:52:27.437Z,18.43
2022-11-12T20:55:14.276Z,20.70
2022-11-12T20:58:01.083Z,19.37
2022-11-12T21:00:49.445Z,18.43
2022-11-12T21:03:37.250Z,19.80
2022-11-12T21:06:26.259Z,19.40
2022-11-12T21:09:13.187Z,23.73
2022-11-12T21:12:00.016Z,20.33
2022-11-12T21:14:50.357Z,17.80
2022-11-12T21:17:37.598Z,18.27
2022-11-12T21:20:24.533Z,16.83
2022-11-12T21:23:11.356Z,18.00
2022-11-12T21:26:01.984Z,17.33
2022-11-12T21:28:50.248Z,17.43
2022-11-12T21:31:37.447Z,15.57
2022-11-12T21:34:24.310Z,16.87
2022-11-12T21:37:11.267Z,15.53
2022-11-12T21:39:58.285Z,16.60
2022-11-12T21:42:45.447Z,17.10
2022-11-12T21:45:32.486Z,17.00
2022-11-12T21:48:19.294Z,15.77
2022-11-12T21:51:07.352Z,15.50
2022-11-12T21:53:55.038Z,16.50
2022-11-12T21:56:42.132Z,16.27
2022-11-12T21:59:29.390Z,16.50
2022-11-12T22:02:16.237Z,15.80
2022-11-12T22:05:03.239Z,15.97
2022-11-12T22:07:51.666Z,15.00
2022-11-12T22:10:39.146Z,14.60
2022-11-12T22:13:27.498Z,16.03
2022-11-12T22:16:16.365Z,15.80
2022-11-12T22:19:03.345Z,17.37
2022-11-12T22:21:50.532Z,17.37
2022-11-12T22:24:37.888Z,17.47
2022-11-12T22:27:26.037Z,16.90
2022-11-12T22:30:12.862Z,17.17
2022-11-12T22:33:00.056Z,17.87
2022-11-12T22:35:47.191Z,19.23
2022-11-12T22:38:35.520Z,18.53
2022-11-12T22:41:29.974Z,17.37
2022-11-12T22:44:16.896Z,18.90
2022-11-12T22:47:03.761Z,17.40
2022-11-12T22:49:50.676Z,17.73
2022-11-12T22:52:37.490Z,14.83
2022-11-12T22:55:24.297Z,16.50
2022-11-12T22:58:12.023Z,17.97
2022-11-12T23:00:58.967Z,17.00
2022-11-12T23:03:45.802Z,15.43
2022-11-12T23:06:32.978Z,15.97
2022-11-12T23:09:19.805Z,16.60
2022-11-12T23:12:06.711Z,15.60
2022-11-12T23:14:54.872Z,16.37
2022-11-12T23:17:41.745Z,15.13
2022-11-12T23:20:28.506Z,15.20
2022-11-12T23:23:15.360Z,15.70
2022-11-12T23:26:03.776Z,15.53
2022-11-12T23:28:51.277Z,14.67
2022-11-12T23:31:38.584Z,15.03
2022-11-12T23:34:25.799Z,16.43
2022-11-12T23:37:12.726Z,14.60
2022-11-12T23:39:59.912Z,16.27
2022-11-12T23:42:46.894Z,16.97
2022-11-12T23:45:38.098Z,15.80
2022-11-12T23:48:25.685Z,17.33
2022-11-12T23:51:14.437Z,14.97
2022-11-12T23:54:01.272Z,16.10
2022-11-12T23:56:48.564Z,16.53
2022-11-12T23:59:35.706Z,15.33
